createdAt,value
2023-05-15T00:02:03.152Z,992.66
2023-05-15T00:07:07.286Z,992.56
2023-05-15T00:12:11.494Z,992.49
2023-05-15T00:17:15.618Z,992.42
2023-05-15T00:22:19.797Z,992.46
2023-05-15T00:27:23.973Z,992.46
2023-05-15T00:32:28.109Z,992.44
2023-05-15T00:37:32.257Z,992.53
2023-05-15T00:42:36.410Z,992.53
2023-05-15T00:47:40.631Z,992.51
2023-05-15T00:52:44.768Z,992.49
2023-05-15T00:57:48.935Z,992.47
2023-05-15T01:02:53.130Z,992.34
2023-05-15T01:07:57.225Z,992.28
2023-05-15T01:13:01.369Z,992.31
2023-05-15T01:18:05.744Z,992.24
2023-05-15T01:23:09.711Z,992.29
2023-05-15T01:28:13.866Z,992.31
2023-05-15T01:33:18.044Z,992.31
2023-05-15T01:38:22.180Z,992.22
2023-05-15T01:43:26.375Z,992.26
2023-05-15T01:48:30.536Z,992.32
2023-05-15T01:53:34.739Z,992.22
2023-05-15T01:58:38.831Z,992.30
2023-05-15T02:03:43.102Z,992.33
2023-05-15T02:08:47.181Z,992.28
2023-05-15T02:13:51.343Z,992.29
2023-05-15T02:18:55.557Z,992.25
2023-05-15T02:23:59.656Z,992.24
2023-05-15T02:29:03.792Z,992.25
2023-05-15T02:34:07.995Z,992.30
2023-05-15T02:39:10.224Z,992.42
2023-05-15T02:44:14.411Z,992.31
2023-05-15T02:49:18.583Z,992.31
2023-05-15T02:54:22.986Z,992.30
2023-05-15T02:59:26.888Z,992.34
2023-05-15T03:04:31.093Z,992.34
2023-05-15T03:09:33.436Z,992.00
2023-05-15T03:19:41.617Z,991.92
2023-05-15T03:24:45.797Z,991.78
2023-05-15T03:29:49.963Z,991.64
2023-05-15T03:34:54.126Z,991.51
2023-05-15T03:39:58.252Z,991.52
2023-05-15T03:45:02.461Z,991.32
2023-05-15T03:50:06.595Z,991.22
2023-05-15T03:55:10.804Z,990.98
2023-05-15T04:00:15.942Z,991.02
2023-05-15T04:05:19.122Z,990.94
2023-05-15T04:10:23.345Z,990.95
2023-05-15T04:15:27.646Z,990.86
2023-05-15T04:20:31.597Z,990.70
2023-05-15T04:25:35.731Z,990.67
2023-05-15T04:30:39.899Z,990.59
2023-05-15T04:35:44.035Z,990.58
2023-05-15T04:40:48.242Z,990.51
2023-05-15T04:45:52.402Z,990.41
2023-05-15T04:50:56.502Z,990.46
2023-05-15T04:56:00.707Z,990.36
2023-05-15T05:01:04.964Z,990.38
2023-05-15T05:06:09.002Z,990.44
2023-05-15T05:11:13.176Z,990.47
2023-05-15T05:16:17.382Z,990.65
2023-05-15T05:21:21.518Z,990.72
2023-05-15T05:26:25.646Z,990.86
2023-05-15T05:31:29.909Z,991.00
2023-05-15T05:36:33.967Z,991.17
2023-05-15T05:41:38.158Z,991.38
2023-05-15T05:46:42.337Z,991.60
2023-05-15T05:51:46.499Z,991.84
2023-05-15T05:56:50.628Z,991.94
2023-05-15T06:01:54.869Z,992.17
2023-05-15T06:06:58.970Z,992.30
2023-05-15T06:12:03.102Z,992.41
2023-05-15T06:17:07.314Z,992.60
2023-05-15T06:22:11.439Z,992.64
2023-05-15T06:27:15.577Z,992.77
2023-05-15T06:32:19.735Z,992.88
2023-05-15T06:37:23.942Z,993.06
2023-05-15T06:42:28.103Z,993.08
2023-05-15T06:47:32.311Z,993.03
2023-05-15T06:52:36.396Z,993.09
2023-05-15T06:57:40.563Z,993.16
2023-05-15T07:02:44.757Z,993.24
2023-05-15T07:07:48.880Z,993.37
2023-05-15T07:12:53.011Z,993.42
2023-05-15T07:17:57.320Z,993.45
2023-05-15T07:23:01.350Z,993.73
2023-05-15T07:28:05.545Z,993.80
2023-05-15T07:33:09.691Z,993.86
2023-05-15T07:38:13.871Z,993.90
2023-05-15T07:43:17.997Z,993.83
2023-05-15T07:48:22.150Z,993.79
2023-05-15T07:53:26.328Z,993.68
2023-05-15T07:58:30.469Z,993.80
2023-05-15T08:03:34.748Z,993.81
2023-05-15T08:08:38.825Z,993.81
2023-05-15T08:13:43.001Z,993.99
2023-05-15T08:18:47.151Z,993.85
2023-05-15T08:23:53.671Z,994.00
2023-05-15T08:28:55.443Z,994.03
2023-05-15T08:33:59.574Z,994.08
2023-05-15T08:39:01.843Z,994.14
2023-05-15T08:44:06.049Z,994.14
2023-05-15T08:49:10.180Z,994.24
2023-05-15T08:54:14.349Z,994.16
2023-05-15T08:59:18.527Z,994.13
2023-05-15T09:04:22.644Z,994.16
2023-05-15T09:09:26.851Z,994.19
2023-05-15T09:14:30.979Z,994.27
2023-05-15T09:19:35.122Z,994.14
2023-05-15T09:24:39.264Z,994.32
2023-05-15T09:29:43.452Z,994.37
2023-05-15T09:34:47.607Z,994.37
2023-05-15T09:39:51.755Z,994.58
2023-05-15T09:44:55.949Z,994.65
2023-05-15T09:50:00.101Z,994.67
2023-05-15T09:55:04.234Z,994.69
2023-05-15T10:00:08.422Z,994.71
2023-05-15T10:05:12.607Z,994.68
2023-05-15T10:10:16.757Z,994.73
2023-05-15T10:15:20.898Z,994.71
2023-05-15T10:20:25.254Z,994.68
2023-05-15T10:25:29.194Z,994.53
2023-05-15T10:30:33.374Z,994.55
2023-05-15T10:35:37.529Z,994.39
2023-05-15T10:40:41.703Z,994.41
2023-05-15T10:45:45.869Z,994.30
2023-05-15T10:50:50.003Z,994.29
2023-05-15T10:55:54.210Z,994.10
2023-05-15T11:06:02.477Z,993.87
2023-05-15T11:11:06.625Z,993.81
2023-05-15T11:16:12.068Z,993.82
2023-05-15T11:21:14.927Z,995.26
2023-05-15T11:26:19.117Z,999.37
2023-05-15T11:31:23.275Z,1000.24
2023-05-15T11:36:27.416Z,1000.99
2023-05-15T11:41:31.646Z,1001.30
2023-05-15T11:46:35.748Z,1001.35
2023-05-15T11:51:39.922Z,1001.55
2023-05-15T11:56:44.073Z,1001.38
2023-05-15T12:01:48.237Z,1001.25
2023-05-15T12:06:52.393Z,1001.10
2023-05-15T12:11:56.564Z,1001.04
2023-05-15T12:17:00.856Z,1001.22
2023-05-15T12:22:04.861Z,1001.44
2023-05-15T12:27:09.011Z,1001.59
2023-05-15T12:32:13.235Z,1001.76
2023-05-15T12:37:17.332Z,1001.92
2023-05-15T12:42:21.525Z,1002.15
2023-05-15T12:47:25.685Z,1002.22
2023-05-15T12:52:29.831Z,1002.13
2023-05-15T12:57:33.962Z,1002.15
2023-05-15T13:02:38.240Z,1002.29
2023-05-15T13:07:42.312Z,1002.32
2023-05-15T13:12:46.448Z,1002.27
2023-05-15T13:17:50.688Z,1002.24
2023-05-15T13:22:54.747Z,1002.27
2023-05-15T13:27:58.920Z,1002.27
2023-05-15T13:33:03.103Z,1002.31
2023-05-15T13:38:09.468Z,1002.27
2023-05-15T13:43:11.409Z,1002.19
2023-05-15T13:48:15.577Z,1002.19
2023-05-15T13:53:19.705Z,1002.30
2023-05-15T13:58:23.919Z,1002.41
2023-05-15T14:03:28.162Z,1002.26
2023-05-15T14:08:30.285Z,1002.25
2023-05-15T14:13:34.460Z,1002.16
2023-05-15T14:18:38.696Z,1002.30
2023-05-15T14:23:42.774Z,1002.23
2023-05-15T14:28:46.907Z,1002.30
2023-05-15T14:33:52.431Z,1002.20
2023-05-15T14:38:55.252Z,1002.38
2023-05-15T14:43:59.429Z,1002.32
2023-05-15T14:49:03.585Z,1002.28
2023-05-15T14:54:07.709Z,1002.30
2023-05-15T14:59:11.914Z,1002.24
2023-05-15T15:04:16.114Z,1002.37
2023-05-15T15:09:21.441Z,1002.19
2023-05-15T15:14:24.359Z,1002.02
2023-05-15T15:19:28.573Z,1002.22
2023-05-15T15:24:32.647Z,1002.33
2023-05-15T15:29:36.846Z,1002.42
2023-05-15T15:34:40.998Z,1002.56
2023-05-15T15:39:45.194Z,1002.46
2023-05-15T15:44:49.329Z,1002.48
2023-05-15T15:49:53.510Z,1002.50
2023-05-15T15:54:57.693Z,1002.55
2023-05-15T16:00:01.907Z,1002.41
2023-05-15T16:05:05.977Z,1002.39
2023-05-15T16:10:12.823Z,1002.15
2023-05-15T16:15:22.722Z,1002.41
2023-05-15T16:20:18.425Z,1002.20
2023-05-15T16:25:22.591Z,1002.34
2023-05-15T16:30:40.123Z,1002.19
2023-05-15T16:35:30.938Z,1002.46
2023-05-15T16:40:35.070Z,1002.54
2023-05-15T16:45:39.244Z,1002.56
2023-05-15T16:50:43.398Z,1002.46
2023-05-15T16:55:47.565Z,1002.33
2023-05-15T17:00:51.679Z,1002.29
2023-05-15T17:05:55.879Z,1002.43
2023-05-15T17:11:00.067Z,1002.42
2023-05-15T17:16:04.248Z,1002.26
2023-05-15T17:21:08.334Z,1002.21
2023-05-15T17:26:12.509Z,1002.13
2023-05-15T17:31:16.652Z,1001.84
2023-05-15T17:36:20.826Z,1001.35
2023-05-15T17:41:25.000Z,1000.08
2023-05-15T17:46:29.231Z,998.56
2023-05-15T17:51:33.312Z,995.62
2023-05-15T17:56:37.438Z,994.03
2023-05-15T18:01:41.735Z,993.87
2023-05-15T18:06:45.785Z,994.63
2023-05-15T18:11:49.941Z,993.82
2023-05-15T18:16:54.115Z,992.08
2023-05-15T18:21:58.264Z,993.47
2023-05-15T18:27:02.464Z,994.60
2023-05-15T18:32:06.630Z,995.59
2023-05-15T18:37:10.761Z,995.84
2023-05-15T18:42:14.881Z,996.03
2023-05-15T18:47:19.052Z,995.85
2023-05-15T18:52:23.211Z,995.90
2023-05-15T18:57:27.407Z,995.72
2023-05-15T19:02:31.612Z,995.79
2023-05-15T19:07:35.726Z,995.90
2023-05-15T19:12:39.827Z,995.88
2023-05-15T19:17:44.030Z,995.92
2023-05-15T19:22:48.173Z,996.04
2023-05-15T19:27:52.364Z,996.08
2023-05-15T19:32:56.587Z,996.24
2023-05-15T19:37:59.893Z,996.23
2023-05-15T19:43:04.037Z,996.17
2023-05-15T19:48:08.295Z,996.10
2023-05-15T19:53:12.392Z,996.30
2023-05-15T19:58:16.497Z,996.25
2023-05-15T20:03:20.807Z,996.17
2023-05-15T20:08:22.951Z,996.20
2023-05-15T20:13:27.127Z,996.27
2023-05-15T20:18:34.463Z,996.29
2023-05-15T20:23:35.392Z,996.31
2023-05-15T20:28:39.548Z,996.34
2023-05-15T20:33:43.748Z,996.31
2023-05-15T20:38:47.876Z,996.28
2023-05-15T20:43:52.080Z,996.22
2023-05-15T20:48:56.221Z,996.33
2023-05-15T20:54:00.414Z,996.26
2023-05-15T20:59:04.506Z,996.28
2023-05-15T21:04:08.799Z,996.26
2023-05-15T21:09:12.851Z,996.44
2023-05-15T21:14:17.020Z,996.41
2023-05-15T21:19:21.276Z,996.44
2023-05-15T21:24:25.337Z,996.40
2023-05-15T21:29:29.515Z,996.34
2023-05-15T21:34:33.657Z,996.42
2023-05-15T21:39:37.801Z,996.48
2023-05-15T21:44:41.956Z,996.37
2023-05-15T21:49:46.141Z,996.42
2023-05-15T21:54:50.282Z,996.53
2023-05-15T21:59:54.503Z,996.58
2023-05-15T22:04:58.603Z,996.59
2023-05-15T22:10:02.770Z,996.58
2023-05-15T22:15:06.942Z,996.50
2023-05-15T22:20:11.073Z,996.48
2023-05-15T22:25:15.281Z,996.44
2023-05-15T22:30:19.411Z,996.45
2023-05-15T22:35:23.592Z,996.44
2023-05-15T22:40:27.919Z,996.52
2023-05-15T22:45:31.923Z,996.50
2023-05-15T22:50:36.037Z,996.47
2023-05-15T22:55:40.164Z,996.46
2023-05-15T23:00:44.403Z,996.34
2023-05-15T23:05:48.508Z,996.15
2023-05-15T23:10:52.756Z,995.95
2023-05-15T23:15:56.900Z,995.80
2023-05-15T23:21:01.032Z,995.75
2023-05-15T23:26:05.163Z,995.70
2023-05-15T23:31:09.365Z,995.50
2023-05-15T23:36:13.476Z,995.43
2023-05-15T23:41:17.662Z,995.43
2023-05-15T23:46:21.784Z,995.37
2023-05-15T23:51:25.981Z,995.25
2023-05-15T23:56:30.109Z,995.28
